Terminal Aerodrome Forecast
Issued by NWS Topeka, KS

Home | Current Version | Previous Version | Text Only | Print | Product List | Glossary Off
Versions: 1 2 3 4 5 6 7 8 9 10 11 12 13 14 15 16 17

000
FTUS43 KTOP 121700
TAFTOP
TAF
KTOP 121721Z 1218/1318 22012KT P6SM FEW250
     FM130800 33006KT P6SM VCTS SCT060CB BKN100
     FM131300 01008KT P6SM VCSH SCT060 BKN100=

USA.gov is the U.S. government's official web portal to all federal, state and local government web resources and services.